Fowlstown, Georgia
Current Conditions -  °F | °C
As of 8:35 AM on Sunday 23 Nov 2014 (Local Time) from KBGE Reporting Station
Haze Haze  
Wind Chill: 66°   Ceiling: 400
Heat Index: 66°   Visibility: 4mi
Dew Point: 64°   Wind: 5mph
Humidity: 94%   Direction: 90°E
Pressure: 29.93"   Gusts: NA
Location:  30.8°N, 84.55°W
Report Text: KBGE 231335Z AUTO 09004KT 4SM BR OVC004 19/18 A2993 RMK AO2 LTG DSNT SW AND W
Loading
Personal Weather Stations






























Interactive Weather Map New forecast layout! Learn more

10-Day Weather Forecast

Advertisements
Track Severe Weather on mobile